sensor_id;sensor_type;location;lat;lon;timestamp;P1;durP1;ratioP1;P2;durP2;ratioP2
29546;SDS011;40782;47.264;11.330;2024-03-23T00:53:15;4.00;;;3.70;;
29546;SDS011;40782;47.264;11.330;2024-03-23T00:55:42;5.80;;;4.25;;
29546;SDS011;40782;47.264;11.330;2024-03-23T00:58:08;4.63;;;3.92;;
29546;SDS011;40782;47.264;11.330;2024-03-23T01:00:35;4.53;;;4.13;;
29546;SDS011;40782;47.264;11.330;2024-03-23T01:03:01;5.15;;;3.85;;
29546;SDS011;40782;47.264;11.330;2024-03-23T01:05:30;6.03;;;3.67;;
29546;SDS011;40782;47.264;11.330;2024-03-23T01:07:56;4.68;;;4.07;;
29546;SDS011;40782;47.264;11.330;2024-03-23T01:10:23;4.05;;;3.58;;
29546;SDS011;40782;47.264;11.330;2024-03-23T01:12:50;7.22;;;3.85;;
29546;SDS011;40782;47.264;11.330;2024-03-23T01:15:17;4.20;;;3.03;;
29546;SDS011;40782;47.264;11.330;2024-03-23T01:17:43;7.57;;;3.63;;
29546;SDS011;40782;47.264;11.330;2024-03-23T01:20:10;4.45;;;3.20;;
29546;SDS011;40782;47.264;11.330;2024-03-23T01:22:38;4.22;;;3.13;;
29546;SDS011;40782;47.264;11.330;2024-03-23T01:25:05;6.07;;;3.58;;
29546;SDS011;40782;47.264;11.330;2024-03-23T01:27:32;4.40;;;3.20;;
29546;SDS011;40782;47.264;11.330;2024-03-23T01:30:00;6.53;;;3.72;;
29546;SDS011;40782;47.264;11.330;2024-03-23T01:32:26;5.88;;;4.10;;
29546;SDS011;40782;47.264;11.330;2024-03-23T01:34:53;4.70;;;3.40;;
29546;SDS011;40782;47.264;11.330;2024-03-23T01:37:19;4.72;;;3.00;;
29546;SDS011;40782;47.264;11.330;2024-03-23T01:39:48;3.75;;;3.08;;
29546;SDS011;40782;47.264;11.330;2024-03-23T01:42:14;3.28;;;2.97;;
29546;SDS011;40782;47.264;11.330;2024-03-23T01:44:41;5.90;;;3.50;;
29546;SDS011;40782;47.264;11.330;2024-03-23T01:47:07;5.88;;;3.75;;
29546;SDS011;40782;47.264;11.330;2024-03-23T01:49:35;6.50;;;3.10;;
29546;SDS011;40782;47.264;11.330;2024-03-23T01:52:01;3.75;;;3.45;;
29546;SDS011;40782;47.264;11.330;2024-03-23T01:54:29;4.63;;;3.50;;
29546;SDS011;40782;47.264;11.330;2024-03-23T01:56:57;3.95;;;3.40;;
29546;SDS011;40782;47.264;11.330;2024-03-23T01:59:25;5.35;;;3.20;;
29546;SDS011;40782;47.264;11.330;2024-03-23T02:01:51;7.40;;;3.90;;
29546;SDS011;40782;47.264;11.330;2024-03-23T02:04:19;5.65;;;3.90;;
29546;SDS011;40782;47.264;11.330;2024-03-23T02:06:45;6.05;;;3.92;;
29546;SDS011;40782;47.264;11.330;2024-03-23T02:09:12;3.72;;;3.17;;
29546;SDS011;40782;47.264;11.330;2024-03-23T02:11:39;4.57;;;3.35;;
29546;SDS011;40782;47.264;11.330;2024-03-23T02:14:07;4.85;;;3.78;;
29546;SDS011;40782;47.264;11.330;2024-03-23T02:16:33;5.40;;;3.50;;
29546;SDS011;40782;47.264;11.330;2024-03-23T02:19:01;6.93;;;3.80;;
29546;SDS011;40782;47.264;11.330;2024-03-23T02:21:27;6.20;;;3.72;;
29546;SDS011;40782;47.264;11.330;2024-03-23T02:23:58;6.03;;;4.25;;
29546;SDS011;40782;47.264;11.330;2024-03-23T02:26:24;5.63;;;2.97;;
29546;SDS011;40782;47.264;11.330;2024-03-23T02:28:51;6.75;;;3.17;;
29546;SDS011;40782;47.264;11.330;2024-03-23T02:31:17;3.55;;;2.88;;
29546;SDS011;40782;47.264;11.330;2024-03-23T02:33:45;3.60;;;3.28;;
29546;SDS011;40782;47.264;11.330;2024-03-23T02:36:11;4.10;;;3.38;;
29546;SDS011;40782;47.264;11.330;2024-03-23T02:38:38;4.47;;;3.08;;
29546;SDS011;40782;47.264;11.330;2024-03-23T02:41:06;3.20;;;2.90;;
29546;SDS011;40782;47.264;11.330;2024-03-23T02:43:34;4.53;;;3.63;;
29546;SDS011;40782;47.264;11.330;2024-03-23T02:46:00;4.72;;;3.28;;
29546;SDS011;40782;47.264;11.330;2024-03-23T02:48:28;6.25;;;4.22;;
29546;SDS011;40782;47.264;11.330;2024-03-23T02:50:54;4.38;;;3.65;;
29546;SDS011;40782;47.264;11.330;2024-03-23T02:53:21;3.30;;;3.00;;
29546;SDS011;40782;47.264;11.330;2024-03-23T02:55:48;8.35;;;3.78;;
29546;SDS011;40782;47.264;11.330;2024-03-23T02:58:16;5.90;;;3.75;;
29546;SDS011;40782;47.264;11.330;2024-03-23T03:00:42;3.90;;;3.17;;
29546;SDS011;40782;47.264;11.330;2024-03-23T03:03:09;3.45;;;2.80;;
29546;SDS011;40782;47.264;11.330;2024-03-23T03:05:35;5.05;;;2.70;;
29546;SDS011;40782;47.264;11.330;2024-03-23T03:08:02;4.57;;;3.20;;
29546;SDS011;40782;47.264;11.330;2024-03-23T03:10:30;2.80;;;2.60;;
29546;SDS011;40782;47.264;11.330;2024-03-23T03:13:00;2.63;;;2.42;;
29546;SDS011;40782;47.264;11.330;2024-03-23T03:15:27;4.55;;;2.40;;
29546;SDS011;40782;47.264;11.330;2024-03-23T03:17:55;3.42;;;2.92;;
29546;SDS011;40782;47.264;11.330;2024-03-23T03:20:21;4.43;;;3.03;;
29546;SDS011;40782;47.264;11.330;2024-03-23T03:22:49;3.88;;;3.13;;
29546;SDS011;40782;47.264;11.330;2024-03-23T03:25:15;3.35;;;2.90;;
29546;SDS011;40782;47.264;11.330;2024-03-23T03:27:42;4.25;;;3.55;;
29546;SDS011;40782;47.264;11.330;2024-03-23T03:30:09;4.03;;;3.13;;
29546;SDS011;40782;47.264;11.330;2024-03-23T03:32:38;5.75;;;3.03;;
29546;SDS011;40782;47.264;11.330;2024-03-23T03:35:04;4.00;;;2.95;;
29546;SDS011;40782;47.264;11.330;2024-03-23T03:37:32;3.40;;;3.15;;
29546;SDS011;40782;47.264;11.330;2024-03-23T03:39:58;3.08;;;2.80;;
29546;SDS011;40782;47.264;11.330;2024-03-23T03:42:25;4.30;;;2.90;;
29546;SDS011;40782;47.264;11.330;2024-03-23T03:44:51;3.85;;;3.13;;
29546;SDS011;40782;47.264;11.330;2024-03-23T03:47:19;3.85;;;3.03;;
29546;SDS011;40782;47.264;11.330;2024-03-23T03:49:47;4.55;;;3.22;;
29546;SDS011;40782;47.264;11.330;2024-03-23T03:52:14;3.40;;;3.10;;
29546;SDS011;40782;47.264;11.330;2024-03-23T03:54:41;3.63;;;3.13;;
29546;SDS011;40782;47.264;11.330;2024-03-23T03:57:08;3.10;;;2.90;;
29546;SDS011;40782;47.264;11.330;2024-03-23T03:59:34;6.53;;;3.05;;
29546;SDS011;40782;47.264;11.330;2024-03-23T04:02:01;3.47;;;2.88;;
29546;SDS011;40782;47.264;11.330;2024-03-23T04:04:28;3.53;;;3.00;;
29546;SDS011;40782;47.264;11.330;2024-03-23T04:06:59;3.03;;;2.65;;
29546;SDS011;40782;47.264;11.330;2024-03-23T04:09:25;3.60;;;3.10;;
29546;SDS011;40782;47.264;11.330;2024-03-23T04:11:52;3.45;;;3.15;;
29546;SDS011;40782;47.264;11.330;2024-03-23T04:14:18;4.05;;;2.88;;
29546;SDS011;40782;47.264;11.330;2024-03-23T04:16:46;4.00;;;3.38;;
29546;SDS011;40782;47.264;11.330;2024-03-23T04:19:12;3.28;;;3.03;;
29546;SDS011;40782;47.264;11.330;2024-03-23T04:21:39;3.75;;;3.45;;
29546;SDS011;40782;47.264;11.330;2024-03-23T04:24:08;3.67;;;3.33;;
29546;SDS011;40782;47.264;11.330;2024-03-23T04:26:40;4.82;;;3.78;;
29546;SDS011;40782;47.264;11.330;2024-03-23T04:29:06;7.43;;;3.92;;
29546;SDS011;40782;47.264;11.330;2024-03-23T04:31:34;7.25;;;3.90;;
29546;SDS011;40782;47.264;11.330;2024-03-23T04:34:00;6.93;;;3.80;;
29546;SDS011;40782;47.264;11.330;2024-03-23T04:36:27;8.48;;;5.70;;
29546;SDS011;40782;47.264;11.330;2024-03-23T04:38:53;4.93;;;4.35;;
29546;SDS011;40782;47.264;11.330;2024-03-23T04:41:21;5.25;;;3.70;;
29546;SDS011;40782;47.264;11.330;2024-03-23T04:43:49;3.58;;;3.28;;
29546;SDS011;40782;47.264;11.330;2024-03-23T04:46:16;4.45;;;3.28;;
29546;SDS011;40782;47.264;11.330;2024-03-23T04:48:43;2.92;;;2.63;;
29546;SDS011;40782;47.264;11.330;2024-03-23T04:51:10;3.10;;;2.78;;
29546;SDS011;40782;47.264;11.330;2024-03-23T04:53:38;3.65;;;2.90;;
29546;SDS011;40782;47.264;11.330;2024-03-23T04:56:05;2.80;;;2.60;;
29546;SDS011;40782;47.264;11.330;2024-03-23T04:58:33;4.95;;;3.28;;
29546;SDS011;40782;47.264;11.330;2024-03-23T05:01:02;2.90;;;2.70;;
29546;SDS011;40782;47.264;11.330;2024-03-23T05:03:29;3.70;;;2.80;;
29546;SDS011;40782;47.264;11.330;2024-03-23T05:05:56;3.13;;;2.78;;
29546;SDS011;40782;47.264;11.330;2024-03-23T05:08:22;3.45;;;2.58;;
29546;SDS011;40782;47.264;11.330;2024-03-23T05:10:49;4.45;;;3.75;;
29546;SDS011;40782;47.264;11.330;2024-03-23T05:13:15;3.35;;;3.08;;
29546;SDS011;40782;47.264;11.330;2024-03-23T05:15:50;2.67;;;2.47;;
29546;SDS011;40782;47.264;11.330;2024-03-23T05:18:17;4.30;;;2.67;;
29546;SDS011;40782;47.264;11.330;2024-03-23T05:20:44;3.30;;;3.00;;
29546;SDS011;40782;47.264;11.330;2024-03-23T05:23:10;3.60;;;3.00;;
29546;SDS011;40782;47.264;11.330;2024-03-23T05:25:38;5.53;;;3.22;;
29546;SDS011;40782;47.264;11.330;2024-03-23T05:28:04;6.38;;;5.25;;
29546;SDS011;40782;47.264;11.330;2024-03-23T05:30:31;4.25;;;3.85;;
29546;SDS011;40782;47.264;11.330;2024-03-23T05:33:00;3.15;;;2.85;;
29546;SDS011;40782;47.264;11.330;2024-03-23T05:35:27;3.42;;;3.00;;
29546;SDS011;40782;47.264;11.330;2024-03-23T05:37:53;5.80;;;2.88;;
29546;SDS011;40782;47.264;11.330;2024-03-23T05:40:20;5.47;;;2.95;;
29546;SDS011;40782;47.264;11.330;2024-03-23T05:42:46;3.17;;;2.80;;
29546;SDS011;40782;47.264;11.330;2024-03-23T05:45:13;5.03;;;2.85;;
29546;SDS011;40782;47.264;11.330;2024-03-23T05:47:44;3.95;;;2.75;;
29546;SDS011;40782;47.264;11.330;2024-03-23T05:50:12;2.78;;;2.53;;
29546;SDS011;40782;47.264;11.330;2024-03-23T05:52:38;3.55;;;3.25;;
29546;SDS011;40782;47.264;11.330;2024-03-23T05:55:07;3.80;;;3.45;;
29546;SDS011;40782;47.264;11.330;2024-03-23T05:57:33;5.57;;;3.38;;
29546;SDS011;40782;47.264;11.330;2024-03-23T06:00:00;2.85;;;2.50;;
29546;SDS011;40782;47.264;11.330;2024-03-23T06:02:29;3.40;;;2.38;;
29546;SDS011;40782;47.264;11.330;2024-03-23T06:07:27;6.82;;;2.88;;
29546;SDS011;40782;47.264;11.330;2024-03-23T06:09:55;3.60;;;2.95;;
29546;SDS011;40782;47.264;11.330;2024-03-23T06:12:21;7.03;;;3.40;;
29546;SDS011;40782;47.264;11.330;2024-03-23T06:14:48;3.47;;;3.03;;
29546;SDS011;40782;47.264;11.330;2024-03-23T06:17:15;4.10;;;3.45;;
29546;SDS011;40782;47.264;11.330;2024-03-23T06:19:43;5.32;;;3.70;;
29546;SDS011;40782;47.264;11.330;2024-03-23T06:22:09;4.10;;;3.10;;
29546;SDS011;40782;47.264;11.330;2024-03-23T06:24:38;3.47;;;2.80;;
29546;SDS011;40782;47.264;11.330;2024-03-23T06:27:04;3.38;;;2.90;;
29546;SDS011;40782;47.264;11.330;2024-03-23T06:29:31;4.78;;;2.90;;
29546;SDS011;40782;47.264;11.330;2024-03-23T06:31:57;3.28;;;2.65;;
29546;SDS011;40782;47.264;11.330;2024-03-23T06:34:24;2.70;;;2.50;;
29546;SDS011;40782;47.264;11.330;2024-03-23T06:36:50;2.72;;;2.53;;
29546;SDS011;40782;47.264;11.330;2024-03-23T06:39:18;3.20;;;2.90;;
29546;SDS011;40782;47.264;11.330;2024-03-23T06:41:52;2.55;;;2.30;;
29546;SDS011;40782;47.264;11.330;2024-03-23T06:44:20;2.58;;;2.38;;
29546;SDS011;40782;47.264;11.330;2024-03-23T06:46:47;6.72;;;2.85;;
29546;SDS011;40782;47.264;11.330;2024-03-23T06:49:14;3.38;;;2.78;;
29546;SDS011;40782;47.264;11.330;2024-03-23T06:51:41;10.02;;;3.10;;
29546;SDS011;40782;47.264;11.330;2024-03-23T06:54:07;3.88;;;2.47;;
29546;SDS011;40782;47.264;11.330;2024-03-23T06:56:34;4.43;;;2.85;;
29546;SDS011;40782;47.264;11.330;2024-03-23T06:59:02;5.20;;;2.90;;
29546;SDS011;40782;47.264;11.330;2024-03-23T07:01:29;4.57;;;2.15;;
29546;SDS011;40782;47.264;11.330;2024-03-23T07:03:55;3.63;;;2.88;;
29546;SDS011;40782;47.264;11.330;2024-03-23T07:06:23;2.42;;;2.22;;
29546;SDS011;40782;47.264;11.330;2024-03-23T07:08:49;3.78;;;2.53;;
29546;SDS011;40782;47.264;11.330;2024-03-23T07:11:18;4.25;;;2.70;;
29546;SDS011;40782;47.264;11.330;2024-03-23T07:13:45;3.15;;;2.70;;
29546;SDS011;40782;47.264;11.330;2024-03-23T07:16:14;2.90;;;2.47;;
29546;SDS011;40782;47.264;11.330;2024-03-23T07:18:41;2.85;;;2.30;;
29546;SDS011;40782;47.264;11.330;2024-03-23T07:21:08;4.22;;;2.58;;
29546;SDS011;40782;47.264;11.330;2024-03-23T07:23:34;5.32;;;2.45;;
29546;SDS011;40782;47.264;11.330;2024-03-23T07:26:02;4.72;;;2.53;;
29546;SDS011;40782;47.264;11.330;2024-03-23T07:28:29;2.40;;;2.20;;
29546;SDS011;40782;47.264;11.330;2024-03-23T07:31:01;2.97;;;2.28;;
29546;SDS011;40782;47.264;11.330;2024-03-23T07:33:29;2.45;;;1.85;;
29546;SDS011;40782;47.264;11.330;2024-03-23T07:35:57;3.22;;;2.28;;
29546;SDS011;40782;47.264;11.330;2024-03-23T07:38:25;4.82;;;2.13;;
29546;SDS011;40782;47.264;11.330;2024-03-23T07:41:02;6.78;;;2.42;;
29546;SDS011;40782;47.264;11.330;2024-03-23T07:43:28;2.30;;;2.08;;
29546;SDS011;40782;47.264;11.330;2024-03-23T07:45:56;6.13;;;1.95;;
29546;SDS011;40782;47.264;11.330;2024-03-23T07:48:22;2.40;;;2.20;;
29546;SDS011;40782;47.264;11.330;2024-03-23T07:50:57;2.58;;;2.03;;
29546;SDS011;40782;47.264;11.330;2024-03-23T07:53:28;3.83;;;1.83;;
29546;SDS011;40782;47.264;11.330;2024-03-23T07:55:55;2.28;;;2.10;;
29546;SDS011;40782;47.264;11.330;2024-03-23T07:58:23;6.80;;;2.20;;
29546;SDS011;40782;47.264;11.330;2024-03-23T08:00:49;2.30;;;1.50;;
29546;SDS011;40782;47.264;11.330;2024-03-23T08:03:16;2.13;;;1.92;;
29546;SDS011;40782;47.264;11.330;2024-03-23T08:05:43;2.35;;;1.88;;
29546;SDS011;40782;47.264;11.330;2024-03-23T08:08:11;4.68;;;2.00;;
29546;SDS011;40782;47.264;11.330;2024-03-23T08:10:46;2.00;;;1.85;;
29546;SDS011;40782;47.264;11.330;2024-03-23T08:13:15;2.63;;;1.90;;
29546;SDS011;40782;47.264;11.330;2024-03-23T08:15:41;4.30;;;2.15;;
29546;SDS011;40782;47.264;11.330;2024-03-23T08:18:08;1.77;;;1.63;;
29546;SDS011;40782;47.264;11.330;2024-03-23T08:20:35;10.63;;;3.20;;
29546;SDS011;40782;47.264;11.330;2024-03-23T08:23:02;2.97;;;2.28;;
29546;SDS011;40782;47.264;11.330;2024-03-23T08:25:32;2.17;;;1.98;;
29546;SDS011;40782;47.264;11.330;2024-03-23T08:28:00;3.88;;;1.80;;
29546;SDS011;40782;47.264;11.330;2024-03-23T08:30:26;1.88;;;1.70;;
29546;SDS011;40782;47.264;11.330;2024-03-23T08:32:55;2.17;;;1.98;;
29546;SDS011;40782;47.264;11.330;2024-03-23T08:35:21;2.13;;;1.80;;
29546;SDS011;40782;47.264;11.330;2024-03-23T08:37:48;3.85;;;2.00;;
29546;SDS011;40782;47.264;11.330;2024-03-23T08:40:14;4.60;;;1.70;;
29546;SDS011;40782;47.264;11.330;2024-03-23T08:42:43;1.52;;;1.40;;
29546;SDS011;40782;47.264;11.330;2024-03-23T08:45:10;3.25;;;1.90;;
29546;SDS011;40782;47.264;11.330;2024-03-23T08:47:37;3.90;;;1.63;;
29546;SDS011;40782;47.264;11.330;2024-03-23T08:50:04;1.83;;;1.73;;
29546;SDS011;40782;47.264;11.330;2024-03-23T08:52:31;1.67;;;1.42;;
29546;SDS011;40782;47.264;11.330;2024-03-23T08:54:58;1.88;;;1.50;;
29546;SDS011;40782;47.264;11.330;2024-03-23T08:57:24;1.98;;;1.50;;
29546;SDS011;40782;47.264;11.330;2024-03-23T08:59:53;2.45;;;1.70;;
29546;SDS011;40782;47.264;11.330;2024-03-23T09:02:19;2.88;;;2.20;;
29546;SDS011;40782;47.264;11.330;2024-03-23T09:04:46;1.88;;;1.45;;
29546;SDS011;40782;47.264;11.330;2024-03-23T09:07:12;2.80;;;1.30;;
29546;SDS011;40782;47.264;11.330;2024-03-23T09:09:39;1.60;;;1.50;;
29546;SDS011;40782;47.264;11.330;2024-03-23T09:12:05;1.40;;;1.30;;
29546;SDS011;40782;47.264;11.330;2024-03-23T09:14:33;1.83;;;1.55;;
29546;SDS011;40782;47.264;11.330;2024-03-23T09:17:01;1.95;;;1.42;;
29546;SDS011;40782;47.264;11.330;2024-03-23T09:19:28;1.98;;;1.02;;
29546;SDS011;40782;47.264;11.330;2024-03-23T09:21:54;1.95;;;1.45;;
29546;SDS011;40782;47.264;11.330;2024-03-23T09:24:22;1.30;;;1.20;;
29546;SDS011;40782;47.264;11.330;2024-03-23T09:26:48;2.92;;;2.60;;
29546;SDS011;40782;47.264;11.330;2024-03-23T09:29:15;2.03;;;1.25;;
29546;SDS011;40782;47.264;11.330;2024-03-23T09:31:41;1.70;;;1.60;;
29546;SDS011;40782;47.264;11.330;2024-03-23T09:34:10;1.40;;;1.15;;
29546;SDS011;40782;47.264;11.330;2024-03-23T09:36:36;2.38;;;1.23;;
29546;SDS011;40782;47.264;11.330;2024-03-23T09:39:03;1.50;;;1.00;;
29546;SDS011;40782;47.264;11.330;2024-03-23T09:41:30;6.43;;;1.30;;
29546;SDS011;40782;47.264;11.330;2024-03-23T09:43:58;1.00;;;0.98;;
29546;SDS011;40782;47.264;11.330;2024-03-23T09:46:24;1.35;;;1.30;;
29546;SDS011;40782;47.264;11.330;2024-03-23T09:48:51;2.17;;;1.15;;
29546;SDS011;40782;47.264;11.330;2024-03-23T09:51:19;1.27;;;1.17;;
29546;SDS011;40782;47.264;11.330;2024-03-23T09:53:46;1.35;;;1.25;;
29546;SDS011;40782;47.264;11.330;2024-03-23T09:56:13;1.23;;;1.15;;
29546;SDS011;40782;47.264;11.330;2024-03-23T09:58:42;1.25;;;1.20;;
29546;SDS011;40782;47.264;11.330;2024-03-23T10:01:08;1.50;;;1.40;;
29546;SDS011;40782;47.264;11.330;2024-03-23T10:03:42;1.30;;;1.20;;
29546;SDS011;40782;47.264;11.330;2024-03-23T10:06:08;1.42;;;1.33;;
29546;SDS011;40782;47.264;11.330;2024-03-23T10:08:37;2.10;;;1.20;;
29546;SDS011;40782;47.264;11.330;2024-03-23T10:11:12;1.40;;;1.30;;
29546;SDS011;40782;47.264;11.330;2024-03-23T10:13:41;1.40;;;1.30;;
29546;SDS011;40782;47.264;11.330;2024-03-23T10:16:08;1.40;;;1.30;;
29546;SDS011;40782;47.264;11.330;2024-03-23T10:18:39;2.85;;;1.10;;
29546;SDS011;40782;47.264;11.330;2024-03-23T10:21:08;2.65;;;1.55;;
29546;SDS011;40782;47.264;11.330;2024-03-23T10:23:39;1.65;;;1.35;;
29546;SDS011;40782;47.264;11.330;2024-03-23T10:26:12;2.22;;;1.48;;
29546;SDS011;40782;47.264;11.330;2024-03-23T10:28:56;4.40;;;1.50;;
29546;SDS011;40782;47.264;11.330;2024-03-23T10:31:25;1.70;;;1.60;;
29546;SDS011;40782;47.264;11.330;2024-03-23T10:33:53;1.42;;;1.30;;
29546;SDS011;40782;47.264;11.330;2024-03-23T10:36:20;1.48;;;1.38;;
29546;SDS011;40782;47.264;11.330;2024-03-23T10:38:49;1.60;;;1.50;;
29546;SDS011;40782;47.264;11.330;2024-03-23T10:41:16;1.70;;;1.60;;
29546;SDS011;40782;47.264;11.330;2024-03-23T10:43:44;1.30;;;1.20;;
29546;SDS011;40782;47.264;11.330;2024-03-23T10:46:11;1.50;;;1.40;;
29546;SDS011;40782;47.264;11.330;2024-03-23T10:48:39;1.90;;;1.65;;
29546;SDS011;40782;47.264;11.330;2024-03-23T10:51:06;3.25;;;1.80;;
29546;SDS011;40782;47.264;11.330;2024-03-23T10:53:34;1.48;;;1.38;;
29546;SDS011;40782;47.264;11.330;2024-03-23T10:56:04;3.13;;;1.50;;
29546;SDS011;40782;47.264;11.330;2024-03-23T10:58:33;1.83;;;1.65;;
29546;SDS011;40782;47.264;11.330;2024-03-23T11:01:04;2.55;;;1.80;;
29546;SDS011;40782;47.264;11.330;2024-03-23T11:03:34;2.03;;;1.60;;
29546;SDS011;40782;47.264;11.330;2024-03-23T11:06:02;2.53;;;2.20;;
29546;SDS011;40782;47.264;11.330;2024-03-23T11:08:31;4.50;;;2.45;;
29546;SDS011;40782;47.264;11.330;2024-03-23T11:13:47;3.60;;;1.58;;
29546;SDS011;40782;47.264;11.330;2024-03-23T11:16:14;1.73;;;1.63;;
29546;SDS011;40782;47.264;11.330;2024-03-23T11:18:42;3.03;;;2.13;;
29546;SDS011;40782;47.264;11.330;2024-03-23T11:21:09;1.40;;;1.30;;
29546;SDS011;40782;47.264;11.330;2024-03-23T11:23:36;4.57;;;0.73;;
29546;SDS011;40782;47.264;11.330;2024-03-23T11:26:06;0.85;;;0.60;;
29546;SDS011;40782;47.264;11.330;2024-03-23T11:28:36;2.45;;;0.40;;
29546;SDS011;40782;47.264;11.330;2024-03-23T11:31:07;0.43;;;0.25;;
29546;SDS011;40782;47.264;11.330;2024-03-23T11:33:37;0.20;;;0.20;;
29546;SDS011;40782;47.264;11.330;2024-03-23T11:36:03;0.57;;;0.15;;
29546;SDS011;40782;47.264;11.330;2024-03-23T11:38:31;0.68;;;0.30;;
29546;SDS011;40782;47.264;11.330;2024-03-23T11:41:02;0.47;;;0.25;;
29546;SDS011;40782;47.264;11.330;2024-03-23T11:43:30;0.55;;;0.08;;
29546;SDS011;40782;47.264;11.330;2024-03-23T11:45:58;0.85;;;0.10;;
29546;SDS011;40782;47.264;11.330;2024-03-23T11:48:28;0.38;;;0.20;;
29546;SDS011;40782;47.264;11.330;2024-03-23T11:50:55;0.10;;;0.10;;
29546;SDS011;40782;47.264;11.330;2024-03-23T11:53:24;1.65;;;0.20;;
29546;SDS011;40782;47.264;11.330;2024-03-23T11:55:54;0.65;;;0.20;;
29546;SDS011;40782;47.264;11.330;2024-03-23T11:58:23;0.32;;;0.17;;
29546;SDS011;40782;47.264;11.330;2024-03-23T12:00:50;0.00;;;0.00;;
29546;SDS011;40782;47.264;11.330;2024-03-23T12:03:19;0.20;;;0.10;;
29546;SDS011;40782;47.264;11.330;2024-03-23T12:05:48;0.73;;;0.20;;
29546;SDS011;40782;47.264;11.330;2024-03-23T12:08:18;1.30;;;0.10;;
29546;SDS011;40782;47.264;11.330;2024-03-23T12:10:47;0.30;;;0.10;;
29546;SDS011;40782;47.264;11.330;2024-03-23T12:13:16;0.40;;;0.20;;
29546;SDS011;40782;47.264;11.330;2024-03-23T12:15:44;0.10;;;0.10;;
29546;SDS011;40782;47.264;11.330;2024-03-23T12:18:12;2.38;;;0.25;;
29546;SDS011;40782;47.264;11.330;2024-03-23T12:20:39;0.30;;;0.20;;
29546;SDS011;40782;47.264;11.330;2024-03-23T12:23:08;0.20;;;0.20;;
29546;SDS011;40782;47.264;11.330;2024-03-23T12:25:35;0.17;;;0.17;;
29546;SDS011;40782;47.264;11.330;2024-03-23T12:28:02;0.20;;;0.20;;
29546;SDS011;40782;47.264;11.330;2024-03-23T12:30:31;0.88;;;0.20;;
29546;SDS011;40782;47.264;11.330;2024-03-23T12:32:59;1.00;;;0.10;;
29546;SDS011;40782;47.264;11.330;2024-03-23T12:35:26;0.15;;;0.10;;
29546;SDS011;40782;47.264;11.330;2024-03-23T12:37:53;0.25;;;0.25;;
29546;SDS011;40782;47.264;11.330;2024-03-23T12:40:21;1.10;;;0.20;;
29546;SDS011;40782;47.264;11.330;2024-03-23T12:42:47;3.50;;;0.50;;
29546;SDS011;40782;47.264;11.330;2024-03-23T12:45:14;0.13;;;0.13;;
29546;SDS011;40782;47.264;11.330;2024-03-23T12:47:41;0.85;;;0.35;;
29546;SDS011;40782;47.264;11.330;2024-03-23T12:50:08;0.80;;;0.20;;
29546;SDS011;40782;47.264;11.330;2024-03-23T12:52:35;1.33;;;0.50;;
29546;SDS011;40782;47.264;11.330;2024-03-23T12:55:04;0.65;;;0.40;;
29546;SDS011;40782;47.264;11.330;2024-03-23T12:57:31;0.52;;;0.38;;
29546;SDS011;40782;47.264;11.330;2024-03-23T12:59:58;0.90;;;0.32;;
29546;SDS011;40782;47.264;11.330;2024-03-23T13:02:25;0.63;;;0.50;;
29546;SDS011;40782;47.264;11.330;2024-03-23T13:04:53;0.30;;;0.30;;
29546;SDS011;40782;47.264;11.330;2024-03-23T13:07:20;0.55;;;0.50;;
29546;SDS011;40782;47.264;11.330;2024-03-23T13:09:49;2.30;;;0.50;;
29546;SDS011;40782;47.264;11.330;2024-03-23T13:12:19;2.15;;;0.60;;
29546;SDS011;40782;47.264;11.330;2024-03-23T13:14:46;0.35;;;0.30;;
29546;SDS011;40782;47.264;11.330;2024-03-23T13:17:13;0.85;;;0.40;;
29546;SDS011;40782;47.264;11.330;2024-03-23T13:19:40;0.30;;;0.30;;
29546;SDS011;40782;47.264;11.330;2024-03-23T13:22:07;0.43;;;0.43;;
29546;SDS011;40782;47.264;11.330;2024-03-23T13:24:36;0.40;;;0.40;;
29546;SDS011;40782;47.264;11.330;2024-03-23T13:27:03;0.98;;;0.52;;
29546;SDS011;40782;47.264;11.330;2024-03-23T13:29:34;0.20;;;0.20;;
29546;SDS011;40782;47.264;11.330;2024-03-23T13:32:00;0.20;;;0.20;;
29546;SDS011;40782;47.264;11.330;2024-03-23T13:34:27;0.25;;;0.25;;
29546;SDS011;40782;47.264;11.330;2024-03-23T13:36:54;1.35;;;0.50;;
29546;SDS011;40782;47.264;11.330;2024-03-23T13:39:23;0.63;;;0.40;;
29546;SDS011;40782;47.264;11.330;2024-03-23T13:41:49;0.90;;;0.80;;
29546;SDS011;40782;47.264;11.330;2024-03-23T13:44:16;1.15;;;0.80;;
29546;SDS011;40782;47.264;11.330;2024-03-23T13:46:44;1.08;;;0.50;;
29546;SDS011;40782;47.264;11.330;2024-03-23T13:49:28;0.80;;;0.80;;
29546;SDS011;40782;47.264;11.330;2024-03-23T13:51:55;2.47;;;0.80;;
29546;SDS011;40782;47.264;11.330;2024-03-23T13:54:23;1.10;;;1.00;;
29546;SDS011;40782;47.264;11.330;2024-03-23T13:56:51;1.60;;;1.10;;
29546;SDS011;40782;47.264;11.330;2024-03-23T13:59:19;0.60;;;0.60;;
29546;SDS011;40782;47.264;11.330;2024-03-23T14:01:47;2.20;;;0.60;;
29546;SDS011;40782;47.264;11.330;2024-03-23T14:04:15;1.25;;;0.93;;
29546;SDS011;40782;47.264;11.330;2024-03-23T14:06:41;1.55;;;0.85;;
29546;SDS011;40782;47.264;11.330;2024-03-23T14:09:10;0.80;;;0.80;;
29546;SDS011;40782;47.264;11.330;2024-03-23T14:11:36;1.00;;;0.90;;
29546;SDS011;40782;47.264;11.330;2024-03-23T14:14:03;1.00;;;0.82;;
29546;SDS011;40782;47.264;11.330;2024-03-23T14:16:30;2.10;;;0.90;;
29546;SDS011;40782;47.264;11.330;2024-03-23T14:18:58;1.92;;;1.60;;
29546;SDS011;40782;47.264;11.330;2024-03-23T14:21:24;1.05;;;1.00;;
29546;SDS011;40782;47.264;11.330;2024-03-23T14:23:52;1.42;;;1.17;;
29546;SDS011;40782;47.264;11.330;2024-03-23T14:26:19;1.98;;;1.08;;
29546;SDS011;40782;47.264;11.330;2024-03-23T14:28:49;1.55;;;1.10;;
29546;SDS011;40782;47.264;11.330;2024-03-23T14:31:15;1.77;;;1.13;;
29546;SDS011;40782;47.264;11.330;2024-03-23T14:33:43;1.88;;;0.90;;
29546;SDS011;40782;47.264;11.330;2024-03-23T14:36:13;2.58;;;1.20;;
29546;SDS011;40782;47.264;11.330;2024-03-23T14:38:40;2.72;;;1.35;;
29546;SDS011;40782;47.264;11.330;2024-03-23T14:41:06;3.22;;;1.35;;
29546;SDS011;40782;47.264;11.330;2024-03-23T14:43:33;1.20;;;1.10;;
29546;SDS011;40782;47.264;11.330;2024-03-23T14:46:09;2.20;;;1.20;;
29546;SDS011;40782;47.264;11.330;2024-03-23T14:48:38;23.05;;;11.27;;
29546;SDS011;40782;47.264;11.330;2024-03-23T14:51:04;11.35;;;5.70;;
29546;SDS011;40782;47.264;11.330;2024-03-23T14:53:35;4.47;;;2.63;;
29546;SDS011;40782;47.264;11.330;2024-03-23T14:56:03;3.58;;;2.83;;
29546;SDS011;40782;47.264;11.330;2024-03-23T14:58:30;0.85;;;0.85;;
29546;SDS011;40782;47.264;11.330;2024-03-23T15:01:00;1.13;;;0.80;;
29546;SDS011;40782;47.264;11.330;2024-03-23T15:03:28;1.17;;;0.70;;
29546;SDS011;40782;47.264;11.330;2024-03-23T15:05:54;0.80;;;0.80;;
29546;SDS011;40782;47.264;11.330;2024-03-23T15:08:23;0.90;;;0.90;;
29546;SDS011;40782;47.264;11.330;2024-03-23T15:10:51;0.63;;;0.40;;
29546;SDS011;40782;47.264;11.330;2024-03-23T15:13:18;0.98;;;0.80;;
29546;SDS011;40782;47.264;11.330;2024-03-23T15:15:44;1.45;;;0.90;;
29546;SDS011;40782;47.264;11.330;2024-03-23T15:18:14;0.80;;;0.80;;
29546;SDS011;40782;47.264;11.330;2024-03-23T15:20:40;1.00;;;1.00;;
29546;SDS011;40782;47.264;11.330;2024-03-23T15:23:08;0.88;;;0.88;;
29546;SDS011;40782;47.264;11.330;2024-03-23T15:25:34;1.23;;;1.10;;
29546;SDS011;40782;47.264;11.330;2024-03-23T15:28:03;2.45;;;2.22;;
29546;SDS011;40782;47.264;11.330;2024-03-23T15:30:29;2.05;;;1.85;;
29546;SDS011;40782;47.264;11.330;2024-03-23T15:32:57;2.15;;;1.95;;